Time;durP1;ratioP1;P1;durP2;ratioP2;P2;SDS_P1;SDS_P2;PMS_P1;PMS_P2;Temp;Humidity;BMP_temperature;BMP_pressure;BME280_temperature;BME280_humidity;BME280_pressure;Samples;Min_cycle;Max_cycle;Signal;HPM_P1;HPM_P2
2023/06/08 00:00:50;;;;;;;15.05;7.82;;;11.30;99.90;;;;;;4998792;28;90992;-34
2023/06/08 00:03:18;;;;;;;17.80;9.35;;;11.40;99.90;;;;;;4998428;28;90294;-35
2023/06/08 00:05:49;;;;;;;19.45;8.18;;;11.40;99.90;;;;;;4999801;28;89655;-34
2023/06/08 00:08:16;;;;;;;19.55;9.15;;;11.50;99.90;;;;;;4999155;28;89352;-32
2023/06/08 00:10:42;;;;;;;13.18;8.40;;;11.40;99.90;;;;;;4999509;28;90602;-35
2023/06/08 00:13:08;;;;;;;14.52;9.13;;;11.30;99.90;;;;;;4998018;28;89493;-33
2023/06/08 00:15:34;;;;;;;17.85;8.60;;;11.30;99.90;;;;;;4999351;28;89238;-35
2023/06/08 00:18:01;;;;;;;12.02;8.70;;;11.20;99.90;;;;;;4996873;28;89889;-37
2023/06/08 00:20:26;;;;;;;16.45;8.90;;;11.10;99.90;;;;;;4998526;28;90004;-34
2023/06/08 00:22:52;;;;;;;16.20;8.50;;;11.10;99.90;;;;;;4999201;28;89920;-35
2023/06/08 00:25:18;;;;;;;15.77;8.68;;;11.20;99.90;;;;;;4998231;28;89889;-35
2023/06/08 00:27:43;;;;;;;14.40;7.93;;;11.20;99.90;;;;;;4998717;28;88150;-36
2023/06/08 00:30:10;;;;;;;14.43;8.43;;;11.20;99.90;;;;;;4999121;28;90738;-35
2023/06/08 00:32:35;;;;;;;16.98;8.88;;;11.20;99.90;;;;;;4997808;28;90077;-35
2023/06/08 00:35:01;;;;;;;18.70;8.57;;;11.20;99.90;;;;;;4999001;28;90532;-31
2023/06/08 00:37:27;;;;;;;11.98;7.03;;;11.20;99.90;;;;;;4998232;28;89371;-33
2023/06/08 00:39:52;;;;;;;17.73;9.35;;;11.30;99.90;;;;;;4999756;28;89044;-35
2023/06/08 00:42:18;;;;;;;16.83;8.30;;;11.30;99.90;;;;;;4998038;28;89777;-31
2023/06/08 00:44:43;;;;;;;17.27;8.10;;;11.30;99.90;;;;;;4999437;28;89810;-36
2023/06/08 00:47:09;;;;;;;22.55;9.90;;;11.20;99.90;;;;;;4998182;28;88008;-36
2023/06/08 00:49:35;;;;;;;13.95;8.52;;;11.20;99.90;;;;;;4998145;28;90191;-35
2023/06/08 00:52:02;;;;;;;18.20;8.15;;;11.20;99.90;;;;;;4998754;28;89383;-33
2023/06/08 00:54:30;;;;;;;15.15;9.60;;;11.30;99.90;;;;;;4998429;28;89663;-37
2023/06/08 00:57:00;;;;;;;12.70;8.80;;;11.30;99.90;;;;;;4997448;28;89513;-35
2023/06/08 00:59:30;;;;;;;13.82;9.48;;;11.20;99.90;;;;;;4998583;28;90644;-33
2023/06/08 01:01:57;;;;;;;21.45;11.38;;;11.30;99.90;;;;;;4997843;28;90051;-36
2023/06/08 01:04:23;;;;;;;14.93;8.43;;;11.40;99.90;;;;;;4997896;28;89443;-32
2023/06/08 01:06:53;;;;;;;13.52;8.75;;;11.40;99.90;;;;;;4998720;28;88798;-36
2023/06/08 01:09:24;;;;;;;20.58;9.18;;;11.30;99.90;;;;;;4998498;28;90557;-35
2023/06/08 01:12:07;;;;;;;16.75;8.98;;;11.30;99.90;;;;;;4998441;28;89664;-33
2023/06/08 01:14:58;;;;;;;17.88;8.07;;;11.30;99.90;;;;;;4998175;28;89896;-32
2023/06/08 01:17:52;;;;;;;13.75;7.97;;;11.30;99.90;;;;;;4998274;28;88397;-32
2023/06/08 01:20:37;;;;;;;17.52;7.30;;;11.40;99.90;;;;;;4988674;28;89961;-33
2023/06/08 01:23:20;;;;;;;15.25;9.25;;;11.40;99.90;;;;;;4998045;28;91032;-32
2023/06/08 01:25:48;;;;;;;12.98;9.18;;;11.40;99.90;;;;;;4997721;28;90629;-37
2023/06/08 01:28:14;;;;;;;16.65;7.43;;;11.40;99.90;;;;;;4972393;28;88769;-33
2023/06/08 01:30:48;;;;;;;21.05;8.15;;;11.40;99.90;;;;;;5001364;28;90310;-37
2023/06/08 01:33:20;;;;;;;14.55;8.70;;;11.40;99.90;;;;;;5001214;28;89824;-31
2023/06/08 01:36:10;;;;;;;15.82;9.75;;;11.30;99.90;;;;;;5001067;28;89268;-33
2023/06/08 01:38:53;;;;;;;14.55;8.85;;;11.30;99.90;;;;;;5002003;28;88565;-32
2023/06/08 01:41:23;;;;;;;11.82;7.43;;;11.30;99.90;;;;;;5001888;28;90257;-33
2023/06/08 01:43:51;;;;;;;24.73;9.27;;;11.30;99.90;;;;;;5000736;28;89956;-36
2023/06/08 01:46:20;;;;;;;13.15;7.00;;;11.30;99.90;;;;;;5001636;28;89407;-34
2023/06/08 01:48:47;;;;;;;14.05;6.60;;;11.30;99.90;;;;;;5000895;28;90192;-34
2023/06/08 01:51:14;;;;;;;16.85;6.60;;;11.40;99.90;;;;;;5001629;28;89367;-31
2023/06/08 01:53:41;;;;;;;15.45;6.65;;;11.40;99.90;;;;;;5001353;28;88472;-33
2023/06/08 01:56:07;;;;;;;14.55;7.68;;;11.40;99.90;;;;;;5001251;28;89305;-35
2023/06/08 01:58:32;;;;;;;11.35;7.75;;;11.40;99.90;;;;;;5000817;28;88083;-32
2023/06/08 02:00:58;;;;;;;14.32;8.68;;;11.40;99.90;;;;;;5000727;28;90154;-33
2023/06/08 02:03:23;;;;;;;10.05;6.72;;;11.30;99.90;;;;;;5000536;28;90148;-35
2023/06/08 02:05:49;;;;;;;8.10;6.57;;;11.40;99.90;;;;;;5001389;28;89667;-33
2023/06/08 02:08:15;;;;;;;12.05;8.25;;;11.40;99.90;;;;;;5000628;28;90378;-33
2023/06/08 02:10:40;;;;;;;11.38;7.50;;;11.40;99.90;;;;;;5000915;28;90704;-31
2023/06/08 02:13:06;;;;;;;11.63;5.88;;;11.30;99.90;;;;;;5000499;28;90738;-36
2023/06/08 02:15:32;;;;;;;18.08;7.32;;;11.40;99.90;;;;;;5001191;28;90493;-35
2023/06/08 02:17:59;;;;;;;14.35;7.57;;;11.30;99.90;;;;;;5000488;28;89621;-33
2023/06/08 02:20:25;;;;;;;13.48;8.02;;;11.40;99.90;;;;;;5000879;28;89967;-32
2023/06/08 02:22:51;;;;;;;17.83;8.23;;;11.40;99.90;;;;;;5000469;28;90106;-33
2023/06/08 02:25:16;;;;;;;11.13;7.32;;;11.30;99.90;;;;;;5000553;28;90098;-35
2023/06/08 02:27:43;;;;;;;11.63;7.70;;;11.30;99.90;;;;;;5000802;28;90104;-33
2023/06/08 02:30:10;;;;;;;22.50;10.23;;;11.20;99.90;;;;;;5000671;28;91792;-34
2023/06/08 02:32:36;;;;;;;15.77;7.93;;;11.30;99.90;;;;;;4998821;28;91040;-33
2023/06/08 02:35:03;;;;;;;15.00;7.78;;;11.20;99.90;;;;;;5000877;28;90285;-35
2023/06/08 02:37:30;;;;;;;14.98;6.20;;;11.10;99.90;;;;;;5000234;28;90469;-33
2023/06/08 02:39:56;;;;;;;17.33;9.90;;;11.20;99.90;;;;;;5000461;28;89294;-33
2023/06/08 02:42:22;;;;;;;14.00;6.68;;;11.30;99.90;;;;;;4999642;28;89848;-34
2023/06/08 02:44:48;;;;;;;15.40;7.88;;;11.30;99.90;;;;;;5000346;28;89829;-34
2023/06/08 02:47:15;;;;;;;12.68;7.60;;;11.30;99.90;;;;;;5000512;28;88762;-32
2023/06/08 02:49:41;;;;;;;17.17;6.90;;;11.20;99.90;;;;;;5001361;28;89904;-34
2023/06/08 02:52:07;;;;;;;12.68;7.50;;;11.20;99.90;;;;;;4998945;28;88705;-35
2023/06/08 02:54:32;;;;;;;15.57;7.22;;;11.20;99.90;;;;;;5001103;28;89434;-38
2023/06/08 02:56:58;;;;;;;11.38;7.25;;;11.10;99.90;;;;;;5000171;28;88942;-32
2023/06/08 02:59:23;;;;;;;14.65;9.52;;;11.10;99.90;;;;;;5000495;28;89394;-37
2023/06/08 03:01:53;;;;;;;13.45;7.30;;;11.10;99.90;;;;;;4999454;28;90323;-33
2023/06/08 03:04:22;;;;;;;14.05;8.18;;;11.10;99.90;;;;;;4999343;28;90184;-34
2023/06/08 03:06:55;;;;;;;9.27;7.10;;;11.00;99.90;;;;;;5000497;28;88739;-33
2023/06/08 03:09:22;;;;;;;13.20;7.32;;;11.00;99.90;;;;;;4998153;28;90886;-34
2023/06/08 03:11:49;;;;;;;17.17;8.57;;;11.00;99.90;;;;;;4999728;28;89511;-35
2023/06/08 03:14:16;;;;;;;16.65;9.80;;;11.00;99.90;;;;;;4999783;28;90188;-32
2023/06/08 03:16:42;;;;;;;10.95;7.40;;;11.00;99.90;;;;;;4999299;28;88323;-35
2023/06/08 03:19:09;;;;;;;16.45;7.70;;;11.00;99.90;;;;;;4999216;28;90244;-33
2023/06/08 03:21:36;;;;;;;12.45;9.13;;;11.00;99.90;;;;;;4998623;28;89720;-34
2023/06/08 03:24:05;;;;;;;19.77;9.45;;;11.00;99.90;;;;;;4999908;28;89477;-33
2023/06/08 03:26:30;;;;;;;29.13;11.60;;;11.00;99.90;;;;;;4998775;28;90446;-37
2023/06/08 03:28:56;;;;;;;25.90;10.13;;;11.00;99.90;;;;;;4999037;28;88782;-32
2023/06/08 03:31:22;;;;;;;15.05;8.85;;;11.00;99.90;;;;;;4998788;28;89160;-31
2023/06/08 03:33:48;;;;;;;13.48;9.57;;;10.90;99.90;;;;;;4999450;28;89267;-33
2023/06/08 03:36:15;;;;;;;11.48;7.55;;;11.00;99.90;;;;;;4999829;28;90028;-34
2023/06/08 03:38:40;;;;;;;21.80;9.32;;;11.00;99.90;;;;;;4999646;28;90129;-35
2023/06/08 03:41:07;;;;;;;18.65;9.57;;;10.90;99.90;;;;;;4999407;28;89485;-36
2023/06/08 03:43:34;;;;;;;18.58;9.30;;;11.00;99.90;;;;;;4999744;28;90599;-32
2023/06/08 03:46:00;;;;;;;14.82;8.63;;;11.00;99.90;;;;;;4999160;28;89522;-34
2023/06/08 03:48:25;;;;;;;14.75;8.88;;;11.10;99.90;;;;;;4999141;28;90129;-34
2023/06/08 03:50:51;;;;;;;16.52;8.18;;;11.10;99.90;;;;;;4998874;28;91106;-36
2023/06/08 03:53:17;;;;;;;16.50;7.65;;;11.20;99.90;;;;;;4998958;28;90379;-35
2023/06/08 03:55:43;;;;;;;14.57;8.07;;;11.20;99.90;;;;;;4999646;28;89034;-35
2023/06/08 03:58:08;;;;;;;15.25;6.95;;;11.20;99.90;;;;;;4998594;28;91276;-37
2023/06/08 04:00:34;;;;;;;13.23;8.15;;;11.20;99.90;;;;;;4999505;28;89801;-31
2023/06/08 04:03:00;;;;;;;13.90;6.90;;;11.20;99.90;;;;;;4998972;28;88469;-33
2023/06/08 04:05:26;;;;;;;10.02;7.07;;;11.10;99.90;;;;;;4999486;28;89488;-34
2023/06/08 04:07:51;;;;;;;19.02;8.90;;;11.10;99.90;;;;;;4998472;28;89132;-34
2023/06/08 04:10:17;;;;;;;15.70;7.70;;;11.10;99.90;;;;;;4998650;28;89864;-34
2023/06/08 04:12:43;;;;;;;17.35;9.82;;;11.00;99.90;;;;;;4999469;28;89616;-33
2023/06/08 04:15:10;;;;;;;16.33;10.10;;;10.90;99.90;;;;;;4998070;28;89377;-32
2023/06/08 04:17:40;;;;;;;20.45;15.68;;;10.90;99.90;;;;;;4998359;28;88972;-35
2023/06/08 04:20:06;;;;;;;23.15;11.18;;;10.90;99.90;;;;;;4998193;28;89529;-36
2023/06/08 04:22:32;;;;;;;23.85;9.82;;;11.00;99.90;;;;;;4998224;28;89697;-35
2023/06/08 04:24:57;;;;;;;18.08;11.13;;;11.00;99.90;;;;;;4998327;28;89210;-32
2023/06/08 04:27:24;;;;;;;13.88;7.80;;;11.10;99.90;;;;;;5044005;22;90374;-33
2023/06/08 04:29:50;;;;;;;13.50;9.75;;;11.10;99.90;;;;;;5011917;28;90435;-32
2023/06/08 04:32:16;;;;;;;17.58;10.68;;;11.10;99.90;;;;;;5011251;28;88462;-36
2023/06/08 04:34:41;;;;;;;15.38;9.20;;;11.00;99.90;;;;;;5001712;28;89563;-33
2023/06/08 04:37:07;;;;;;;16.88;9.55;;;11.10;99.90;;;;;;4997790;28;90147;-33
2023/06/08 04:39:32;;;;;;;20.02;10.52;;;11.10;99.90;;;;;;5001738;28;90732;-33
2023/06/08 04:41:58;;;;;;;18.08;9.55;;;11.10;99.90;;;;;;4999024;28;90535;-31
2023/06/08 04:44:24;;;;;;;21.48;12.40;;;11.10;99.90;;;;;;5002099;28;89968;-35
2023/06/08 04:46:49;;;;;;;18.42;9.57;;;11.10;99.90;;;;;;5000080;28;90269;-32
2023/06/08 04:49:16;;;;;;;25.52;10.57;;;11.10;99.90;;;;;;5002790;28;90046;-32
2023/06/08 04:51:46;;;;;;;14.77;9.85;;;11.10;99.90;;;;;;5001144;28;89224;-34
2023/06/08 04:54:13;;;;;;;14.05;9.02;;;11.10;99.90;;;;;;5001517;28;88884;-35
2023/06/08 04:56:40;;;;;;;19.13;9.25;;;11.10;99.90;;;;;;5001185;28;90410;-33
2023/06/08 04:59:09;;;;;;;20.50;11.10;;;11.10;99.90;;;;;;5001967;28;89572;-36
2023/06/08 05:01:35;;;;;;;18.35;10.57;;;11.10;99.90;;;;;;5000913;28;89453;-33
2023/06/08 05:04:02;;;;;;;24.67;10.82;;;11.10;99.90;;;;;;5000445;27;89943;-33
2023/06/08 05:06:28;;;;;;;23.67;11.48;;;11.20;99.90;;;;;;5001545;28;90471;-36
2023/06/08 05:08:53;;;;;;;16.95;9.57;;;11.20;99.90;;;;;;5001626;28;90087;-33
2023/06/08 05:11:19;;;;;;;28.20;10.13;;;11.30;99.90;;;;;;5002636;28;89528;-32
2023/06/08 05:13:44;;;;;;;16.58;8.70;;;11.30;99.90;;;;;;5002074;28;89702;-32
2023/06/08 05:16:10;;;;;;;15.93;9.70;;;11.20;99.90;;;;;;5003066;28;90026;-32
2023/06/08 05:18:36;;;;;;;18.20;10.43;;;11.20;99.90;;;;;;5002150;28;89641;-33
2023/06/08 05:21:02;;;;;;;14.35;8.00;;;11.40;99.90;;;;;;5002482;28;90209;-37
2023/06/08 05:23:27;;;;;;;14.90;8.63;;;11.70;99.90;;;;;;5002186;28;88650;-34
2023/06/08 05:25:53;;;;;;;11.77;7.03;;;12.00;99.90;;;;;;5002675;28;90181;-33
2023/06/08 05:28:19;;;;;;;17.35;9.15;;;12.10;99.90;;;;;;5002252;28;90791;-35
2023/06/08 05:30:44;;;;;;;10.85;7.20;;;12.30;99.90;;;;;;5002451;28;90654;-34
2023/06/08 05:33:10;;;;;;;16.25;7.63;;;12.50;99.90;;;;;;5002873;28;88316;-33
2023/06/08 05:35:36;;;;;;;13.73;6.22;;;12.60;99.90;;;;;;5010554;28;90243;-33
2023/06/08 05:38:02;;;;;;;15.02;8.65;;;12.70;99.90;;;;;;5011521;28;89513;-31
2023/06/08 05:40:27;;;;;;;12.18;6.35;;;12.90;99.90;;;;;;5000391;28;89008;-32
2023/06/08 05:42:53;;;;;;;15.45;8.80;;;12.90;99.90;;;;;;5001643;28;90010;-33
2023/06/08 05:45:19;;;;;;;12.68;8.75;;;13.00;99.90;;;;;;5003138;28;90273;-32
2023/06/08 05:47:45;;;;;;;12.73;7.70;;;12.90;99.90;;;;;;5005545;27;89571;-32
2023/06/08 05:50:10;;;;;;;8.98;6.60;;;13.00;99.90;;;;;;5010663;28;90206;-36
2023/06/08 05:52:36;;;;;;;18.05;7.63;;;13.10;99.90;;;;;;5016077;28;90149;-33
2023/06/08 05:55:02;;;;;;;13.35;7.18;;;13.10;99.90;;;;;;5001063;28;89140;-33
2023/06/08 05:57:28;;;;;;;18.60;9.75;;;13.10;99.90;;;;;;5000073;28;90065;-33
2023/06/08 05:59:53;;;;;;;17.60;7.65;;;12.90;99.90;;;;;;5001136;28;89508;-35
2023/06/08 06:02:19;;;;;;;9.70;7.10;;;13.10;99.90;;;;;;5000989;28;89103;-31
2023/06/08 06:04:45;;;;;;;10.50;6.90;;;13.10;99.90;;;;;;4999956;28;89471;-32
2023/06/08 06:07:10;;;;;;;11.30;7.13;;;13.30;99.90;;;;;;5005648;28;89022;-32
2023/06/08 06:09:36;;;;;;;23.55;8.95;;;13.50;99.90;;;;;;5019389;28;89651;-34
2023/06/08 06:12:02;;;;;;;15.30;7.20;;;13.60;99.90;;;;;;5005536;28;88412;-34
2023/06/08 06:14:39;;;;;;;11.20;6.80;;;13.90;99.90;;;;;;5018382;27;90307;-35
2023/06/08 06:17:06;;;;;;;12.63;8.95;;;14.00;99.90;;;;;;4994334;28;92352;-34
2023/06/08 06:19:36;;;;;;;25.65;8.02;;;14.00;99.90;;;;;;5018067;27;90154;-34
2023/06/08 06:22:05;;;;;;;10.25;7.75;;;14.10;99.90;;;;;;5018779;27;90178;-31
2023/06/08 06:24:31;;;;;;;11.68;6.25;;;14.10;99.90;;;;;;5017810;27;89067;-31
2023/06/08 06:26:58;;;;;;;15.10;6.68;;;14.30;99.90;;;;;;5018153;28;89620;-36
2023/06/08 06:29:24;;;;;;;13.52;8.05;;;14.40;99.90;;;;;;5016612;28;90000;-34
2023/06/08 06:31:50;;;;;;;21.75;8.05;;;14.30;99.90;;;;;;5017781;27;88561;-33
2023/06/08 06:34:16;;;;;;;14.32;7.32;;;14.50;99.90;;;;;;5016771;27;90085;-34
2023/06/08 06:36:41;;;;;;;16.10;8.90;;;14.70;99.90;;;;;;5018091;27;90221;-33
2023/06/08 06:39:07;;;;;;;9.60;7.43;;;14.90;99.90;;;;;;5016625;28;88540;-31
2023/06/08 06:41:32;;;;;;;14.63;8.35;;;15.00;99.90;;;;;;5018270;28;88968;-32
2023/06/08 06:43:58;;;;;;;15.43;7.57;;;15.00;99.90;;;;;;5015781;28;90267;-33
2023/06/08 06:46:25;;;;;;;13.52;6.95;;;15.00;99.90;;;;;;5017882;27;88676;-32
2023/06/08 06:48:51;;;;;;;25.05;9.75;;;15.30;99.90;;;;;;5015056;28;90122;-35
2023/06/08 06:51:16;;;;;;;11.93;6.95;;;15.40;99.90;;;;;;5008343;27;89908;-33
2023/06/08 06:53:42;;;;;;;16.88;7.60;;;15.50;99.90;;;;;;4999747;28;90502;-31
2023/06/08 06:56:07;;;;;;;13.15;7.82;;;15.50;99.90;;;;;;4998406;28;89521;-35
2023/06/08 06:58:33;;;;;;;22.15;10.25;;;15.70;99.90;;;;;;5000505;28;89077;-35
2023/06/08 07:01:01;;;;;;;15.75;7.78;;;15.60;99.90;;;;;;4997868;28;88861;-34
2023/06/08 07:03:27;;;;;;;11.73;7.35;;;15.70;99.90;;;;;;4998922;28;90560;-33
2023/06/08 07:05:57;;;;;;;16.23;9.02;;;15.80;99.90;;;;;;4998418;28;90372;-34
2023/06/08 07:08:27;;;;;;;13.50;7.50;;;15.90;99.90;;;;;;5015169;28;89743;-33
2023/06/08 07:10:53;;;;;;;18.92;7.70;;;15.90;99.90;;;;;;5007771;27;89769;-34
2023/06/08 07:13:18;;;;;;;13.63;7.60;;;15.80;99.90;;;;;;5014760;28;89047;-32
2023/06/08 07:15:44;;;;;;;11.30;8.13;;;15.60;99.90;;;;;;5003337;28;89681;-34
2023/06/08 07:18:10;;;;;;;18.17;7.95;;;15.70;99.90;;;;;;5006902;28;89475;-33
2023/06/08 07:20:36;;;;;;;14.93;7.10;;;15.70;99.90;;;;;;5003739;27;90111;-34
2023/06/08 07:23:01;;;;;;;17.08;7.75;;;15.80;99.90;;;;;;5006731;28;89712;-34
2023/06/08 07:25:27;;;;;;;12.52;6.60;;;16.00;99.90;;;;;;5002151;28;89656;-33
2023/06/08 07:27:52;;;;;;;9.85;6.45;;;16.00;99.90;;;;;;5006656;28;89452;-31
2023/06/08 07:30:18;;;;;;;12.43;6.85;;;16.00;99.90;;;;;;5002848;28;89897;-34
2023/06/08 07:32:44;;;;;;;10.35;7.60;;;15.90;99.90;;;;;;5006886;28;90227;-35
2023/06/08 07:35:09;;;;;;;26.83;8.43;;;16.40;99.90;;;;;;5003623;28;89507;-32
2023/06/08 07:37:36;;;;;;;16.15;7.55;;;16.40;99.90;;;;;;5008480;28;89437;-33
2023/06/08 07:40:05;;;;;;;26.98;9.40;;;16.80;99.90;;;;;;5004713;27;88138;-36
2023/06/08 07:42:31;;;;;;;10.45;8.18;;;17.00;99.90;;;;;;5008576;28;89981;-35
2023/06/08 07:44:56;;;;;;;14.52;8.50;;;16.90;99.90;;;;;;5002803;28;90164;-35
2023/06/08 07:47:22;;;;;;;14.30;8.25;;;17.00;99.90;;;;;;5008125;28;89629;-34
2023/06/08 07:49:47;;;;;;;10.65;7.57;;;16.80;99.90;;;;;;4995084;28;89530;-35
2023/06/08 07:52:13;;;;;;;11.30;8.10;;;16.90;99.90;;;;;;5007864;28;90336;-33
2023/06/08 07:54:39;;;;;;;18.65;8.85;;;16.90;99.90;;;;;;4993603;28;90667;-32
2023/06/08 07:57:05;;;;;;;14.30;7.03;;;17.10;99.90;;;;;;5004774;28;90194;-33
2023/06/08 07:59:31;;;;;;;10.68;6.97;;;17.30;99.90;;;;;;4994827;28;88519;-32
2023/06/08 08:01:57;;;;;;;10.10;6.70;;;17.40;99.90;;;;;;5007451;28;89335;-32
2023/06/08 08:04:23;;;;;;;16.50;6.88;;;17.70;99.90;;;;;;4998325;28;89954;-33
2023/06/08 08:06:49;;;;;;;9.40;6.35;;;17.50;99.90;;;;;;5015864;28;88540;-36
2023/06/08 08:09:15;;;;;;;13.15;7.47;;;17.90;99.90;;;;;;5016584;28;89243;-33
2023/06/08 08:11:41;;;;;;;10.38;6.55;;;18.30;99.90;;;;;;5013973;28;90700;-32
2023/06/08 08:14:09;;;;;;;11.75;6.82;;;18.50;99.90;;;;;;5016007;27;91285;-35
2023/06/08 08:16:38;;;;;;;;;;;18.40;99.90;;;;;;5015910;27;91370;-34
2023/06/08 08:19:03;;;;;;;13.20;7.07;;;18.50;99.90;;;;;;5017686;28;88990;-34
2023/06/08 08:21:29;;;;;;;14.68;7.00;;;18.40;99.90;;;;;;5016343;28;90635;-34
2023/06/08 08:23:54;;;;;;;17.58;6.68;;;18.70;99.90;;;;;;5016801;28;89548;-32
2023/06/08 08:26:21;;;;;;;11.40;6.18;;;18.90;99.90;;;;;;5014792;28;89517;-32
2023/06/08 08:28:47;;;;;;;11.93;7.85;;;18.90;99.90;;;;;;5016390;27;87914;-34
2023/06/08 08:31:13;;;;;;;9.90;6.65;;;18.80;99.90;;;;;;5011378;28;90211;-34
2023/06/08 08:33:38;;;;;;;14.13;5.90;;;18.80;99.90;;;;;;5007431;28;89556;-32
2023/06/08 08:36:05;;;;;;;15.90;6.97;;;18.90;99.90;;;;;;5015994;28;89208;-31
2023/06/08 08:38:31;;;;;;;15.40;6.00;;;19.00;99.90;;;;;;5015136;27;88362;-31
2023/06/08 08:41:02;;;;;;;15.60;7.45;;;19.10;99.90;;;;;;5003656;27;90161;-32
2023/06/08 08:43:52;;;;;;;13.25;7.40;;;19.10;99.90;;;;;;5016359;28;91210;-35
2023/06/08 08:46:21;;;;;;;18.05;7.90;;;19.10;99.90;;;;;;4992998;28;91151;-32
2023/06/08 08:48:50;;;;;;;10.63;5.95;;;19.10;99.90;;;;;;5015739;27;89753;-35
2023/06/08 08:51:20;;;;;;;11.18;8.43;;;19.10;99.90;;;;;;5016605;27;90301;-35
2023/06/08 08:53:50;;;;;;;13.55;7.40;;;19.40;99.90;;;;;;5016207;27;89555;-33
2023/06/08 08:56:30;;;;;;;10.73;7.72;;;19.50;99.90;;;;;;5016227;27;88249;-34
2023/06/08 08:58:57;;;;;;;11.25;6.47;;;19.40;99.90;;;;;;5014973;28;89411;-33
2023/06/08 09:01:23;;;;;;;13.10;8.02;;;19.60;99.90;;;;;;5016191;27;89659;-31
2023/06/08 09:03:49;;;;;;;13.35;7.25;;;19.60;99.90;;;;;;5009434;27;90381;-33
2023/06/08 09:06:15;;;;;;;16.55;8.77;;;19.80;99.90;;;;;;4996650;28;89328;-31
2023/06/08 09:08:41;;;;;;;10.13;7.35;;;19.70;99.90;;;;;;4996499;28;88930;-33
2023/06/08 09:11:09;;;;;;;9.68;6.80;;;19.60;99.90;;;;;;4995550;28;89966;-34
2023/06/08 09:13:36;;;;;;;13.68;6.95;;;19.90;99.90;;;;;;5002589;28;88586;-31
2023/06/08 09:16:11;;;;;;;17.30;8.70;;;19.80;99.90;;;;;;5009724;28;88920;-32
2023/06/08 09:18:38;;;;;;;13.52;7.47;;;19.90;99.90;;;;;;5013503;27;88799;-32
2023/06/08 09:21:22;;;;;;;13.05;7.25;;;20.00;99.90;;;;;;5009785;28;90105;-33
2023/06/08 09:24:03;;;;;;;12.90;8.00;;;20.10;99.90;;;;;;5010548;28;89435;-34
2023/06/08 09:26:32;;;;;;;11.75;6.63;;;20.20;99.90;;;;;;5011966;28;89760;-34
2023/06/08 09:29:03;;;;;;;16.48;8.38;;;20.20;99.90;;;;;;5009911;28;89934;-35
2023/06/08 09:31:29;;;;;;;11.05;8.52;;;20.30;99.90;;;;;;5012222;27;90127;-33
2023/06/08 09:34:09;;;;;;;14.43;7.68;;;20.30;99.90;;;;;;5000326;28;90829;-30
2023/06/08 09:36:37;;;;;;;11.13;7.20;;;20.20;99.90;;;;;;5001524;27;90427;-35
2023/06/08 09:39:04;;;;;;;;;;;20.20;99.90;;;;;;5005146;28;89076;-33
2023/06/08 09:41:29;;;;;;;13.88;7.53;;;20.50;99.90;;;;;;5001957;28;90791;-33
2023/06/08 09:43:55;;;;;;;10.13;7.05;;;20.60;99.90;;;;;;5003856;28;89811;-32
2023/06/08 09:46:45;;;;;;;15.15;7.57;;;20.60;99.90;;;;;;5000567;28;89327;-31
2023/06/08 09:49:13;;;;;;;14.55;8.70;;;20.80;99.90;;;;;;5000068;28;88900;-32
2023/06/08 09:51:50;;;;;;;24.45;8.60;;;20.60;99.90;;;;;;5004231;28;90943;-33
2023/06/08 09:54:20;;;;;;;12.15;7.10;;;20.70;99.90;;;;;;5005086;27;89533;-34
2023/06/08 09:56:55;;;;;;;15.77;7.30;;;20.90;99.90;;;;;;5006301;28;89412;-35
2023/06/08 09:59:28;;;;;;;13.05;6.93;;;21.00;97.70;;;;;;5003985;27;89242;-34
2023/06/08 10:01:55;;;;;;;10.68;7.45;;;20.90;99.90;;;;;;5007114;28;89577;-34
2023/06/08 10:04:29;;;;;;;12.33;6.50;;;20.90;98.50;;;;;;4999634;28;89507;-33
2023/06/08 10:07:03;;;;;;;15.18;7.20;;;21.00;97.80;;;;;;5002890;28;90386;-34
2023/06/08 10:09:32;;;;;;;7.88;7.15;;;21.10;99.90;;;;;;5006074;27;88899;-35
2023/06/08 10:11:59;;;;;;;12.63;6.95;;;21.00;94.30;;;;;;5018343;28;90279;-35
2023/06/08 10:14:28;;;;;;;11.90;6.27;;;21.10;96.90;;;;;;5018311;27;90941;-32
2023/06/08 10:16:56;;;;;;;10.57;6.53;;;21.10;97.70;;;;;;4993375;28;90587;-34
2023/06/08 10:19:23;;;;;;;14.90;6.68;;;21.10;87.50;;;;;;5016405;28;88825;-34
2023/06/08 10:21:51;;;;;;;13.73;6.50;;;21.20;94.90;;;;;;5009935;28;89718;-30
2023/06/08 10:24:19;;;;;;;10.18;5.80;;;21.00;98.40;;;;;;4998341;28;90256;-32
2023/06/08 10:26:46;;;;;;;11.50;6.80;;;20.60;96.50;;;;;;4998598;28;91089;-33
2023/06/08 10:29:11;;;;;;;8.85;6.72;;;20.80;99.90;;;;;;4999059;28;89161;-32
2023/06/08 10:31:49;;;;;;;11.02;6.07;;;21.10;89.90;;;;;;4999948;28;90437;-36
2023/06/08 10:34:17;;;;;;;9.90;5.45;;;21.10;96.80;;;;;;4999418;28;90136;-32
2023/06/08 10:36:43;;;;;;;10.63;6.05;;;21.30;88.60;;;;;;4999526;28;90236;-34
2023/06/08 10:39:14;;;;;;;16.63;6.55;;;21.30;85.10;;;;;;4998792;28;87552;-34
2023/06/08 10:41:43;;;;;;;15.25;7.07;;;21.50;90.40;;;;;;4997725;28;89806;-34
2023/06/08 10:44:32;;;;;;;10.20;5.68;;;21.50;95.10;;;;;;4997879;28;89461;-31
2023/06/08 10:47:08;;;;;;;8.38;5.50;;;21.50;91.00;;;;;;5000405;28;91307;-32
2023/06/08 10:49:36;;;;;;;8.35;5.03;;;21.60;89.40;;;;;;4998379;28;89085;-33
2023/06/08 10:52:04;;;;;;;13.30;6.63;;;21.60;86.50;;;;;;5000682;28;90395;-32
2023/06/08 10:54:31;;;;;;;12.15;6.07;;;21.60;94.50;;;;;;4998821;28;89378;-33
2023/06/08 10:56:59;;;;;;;11.95;6.15;;;21.60;94.00;;;;;;4999770;28;90932;-35
2023/06/08 10:59:34;;;;;;;8.10;5.88;;;21.60;84.70;;;;;;4998318;28;88792;-31
2023/06/08 11:02:07;;;;;;;11.60;6.57;;;21.80;90.00;;;;;;4998355;28;89227;-35
2023/06/08 11:04:33;;;;;;;8.10;5.93;;;21.80;93.70;;;;;;4998610;28;89900;-31
2023/06/08 11:07:06;;;;;;;10.07;6.10;;;22.00;91.00;;;;;;4998096;28;89792;-33
2023/06/08 11:09:34;;;;;;;10.10;6.30;;;21.90;78.70;;;;;;4998203;28;88845;-32
2023/06/08 11:12:03;;;;;;;7.60;5.63;;;22.00;90.80;;;;;;5018021;28;90858;-35
2023/06/08 11:14:29;;;;;;;11.60;6.20;;;22.00;83.80;;;;;;5016024;27;91461;-31
2023/06/08 11:16:56;;;;;;;10.00;6.05;;;22.10;92.20;;;;;;4993510;28;91003;-32
2023/06/08 11:19:29;;;;;;;12.65;6.53;;;21.90;89.20;;;;;;5007140;28;88423;-35
2023/06/08 11:21:55;;;;;;;8.90;6.40;;;21.80;92.00;;;;;;5013044;27;89826;-35
2023/06/08 11:24:28;;;;;;;8.15;5.80;;;21.90;94.70;;;;;;5006376;28;90199;-33
2023/06/08 11:27:00;;;;;;;7.60;5.38;;;21.80;88.70;;;;;;5010755;27;89778;-32
2023/06/08 11:29:27;;;;;;;9.55;6.38;;;21.80;89.90;;;;;;5008720;28;89989;-35
2023/06/08 11:31:54;;;;;;;8.50;6.45;;;22.00;92.40;;;;;;5010366;28;90218;-32
2023/06/08 11:34:21;;;;;;;10.57;5.72;;;21.90;82.00;;;;;;5007275;28;89853;-33
2023/06/08 11:36:48;;;;;;;6.90;5.68;;;21.90;83.90;;;;;;5008562;27;89611;-33
2023/06/08 11:39:14;;;;;;;10.13;6.53;;;22.10;81.90;;;;;;5008884;28;88078;-31
2023/06/08 11:41:46;;;;;;;11.35;7.38;;;22.10;85.00;;;;;;5009069;27;90566;-35
2023/06/08 11:44:13;;;;;;;15.75;6.45;;;22.20;91.30;;;;;;5009790;28;89236;-33
2023/06/08 11:46:39;;;;;;;7.72;5.93;;;22.40;90.00;;;;;;5007779;27;89645;-33
2023/06/08 11:49:12;;;;;;;9.02;5.90;;;22.30;88.10;;;;;;5009776;28;88673;-32
2023/06/08 11:51:49;;;;;;;13.35;7.03;;;22.40;93.00;;;;;;5007311;27;89944;-33
2023/06/08 11:54:15;;;;;;;10.95;6.35;;;22.40;90.70;;;;;;4996384;28;89709;-32
2023/06/08 11:56:45;;;;;;;11.82;6.63;;;22.50;90.30;;;;;;5006976;27;89625;-35
2023/06/08 11:59:15;;;;;;;10.63;6.20;;;22.20;87.00;;;;;;5012383;27;89262;-35
2023/06/08 12:01:59;;;;;;;6.75;5.70;;;22.30;91.80;;;;;;5003214;28;89838;-33
2023/06/08 12:04:30;;;;;;;9.20;6.57;;;22.40;91.00;;;;;;5000512;28;90707;-34
2023/06/08 12:06:57;;;;;;;9.57;6.97;;;22.60;92.40;;;;;;5015332;28;89915;-32
2023/06/08 12:09:23;;;;;;;11.30;5.43;;;22.70;91.50;;;;;;4997223;28;88977;-35
2023/06/08 12:11:48;;;;;;;9.90;6.70;;;22.60;96.10;;;;;;4996680;28;89809;-33
2023/06/08 12:14:14;;;;;;;10.18;5.78;;;22.60;86.60;;;;;;4996431;28;91028;-33
2023/06/08 12:16:44;;;;;;;6.05;5.50;;;22.50;88.30;;;;;;4997641;28;89538;-31
2023/06/08 12:19:10;;;;;;;15.75;6.65;;;22.60;84.50;;;;;;4997145;28;89675;-35
2023/06/08 12:21:42;;;;;;;14.63;6.80;;;22.60;83.00;;;;;;4996135;28;90376;-32
2023/06/08 12:24:09;;;;;;;15.15;7.57;;;22.60;87.20;;;;;;4997195;28;90075;-35
2023/06/08 12:26:35;;;;;;;15.80;8.33;;;22.70;88.40;;;;;;4995128;28;89636;-32
2023/06/08 12:29:05;;;;;;;9.18;6.68;;;22.60;90.00;;;;;;4997020;28;90038;-34
2023/06/08 12:31:30;;;;;;;11.77;5.53;;;22.60;86.50;;;;;;4984507;28;90006;-36
2023/06/08 12:33:56;;;;;;;6.25;5.30;;;22.60;89.00;;;;;;4995558;28;89206;-33
2023/06/08 12:36:22;;;;;;;11.05;6.50;;;22.80;93.70;;;;;;4996383;28;90454;-34
2023/06/08 12:38:48;;;;;;;11.35;6.95;;;22.80;93.20;;;;;;4997896;28;89777;-32
2023/06/08 12:41:14;;;;;;;17.90;7.80;;;22.80;91.10;;;;;;4998269;28;90153;-33